createdAt,value
2016-04-12T09:19:29.471Z,356
2016-04-12T09:42:04.970Z,3752
2016-04-12T09:43:04.879Z,3136
2016-04-12T09:44:04.850Z,2900
2016-04-12T09:45:04.838Z,2768
2016-04-12T09:46:04.669Z,3780
2016-04-12T09:47:04.797Z,8068
2016-04-12T09:48:04.783Z,6908
2016-04-12T09:49:04.755Z,4328
2016-04-12T09:50:04.758Z,3352
2016-04-12T09:51:04.588Z,4396
2016-04-12T09:52:04.762Z,4564
2016-04-12T09:53:04.687Z,4628
2016-04-12T09:54:04.691Z,4756
2016-04-12T09:55:04.677Z,4200
2016-04-12T09:56:04.649Z,5260
2016-04-12T09:57:04.651Z,4680
2016-04-12T09:58:04.607Z,5184
2016-04-12T09:59:04.594Z,5216
2016-04-12T10:00:04.597Z,5508
2016-04-12T10:01:04.600Z,5316
2016-04-12T10:02:04.555Z,5412
2016-04-12T10:03:04.542Z,5444
2016-04-12T10:04:04.529Z,5616
2016-04-12T10:05:04.501Z,5776
2016-04-12T10:06:04.503Z,5984
2016-04-12T10:07:04.538Z,6272
2016-04-12T10:08:04.462Z,6580
2016-04-12T10:09:04.434Z,6932
2016-04-12T10:10:04.483Z,7360
2016-04-12T10:11:04.454Z,7804
2016-04-12T10:12:04.411Z,8292
2016-04-12T10:13:04.225Z,8912
2016-04-12T10:14:04.431Z,9576
2016-04-12T10:15:04.386Z,10632
2016-04-12T10:16:04.328Z,11984
2016-04-12T10:17:04.330Z,13272
2016-04-12T10:18:04.317Z,15636
2016-04-12T10:19:04.319Z,18272
2016-04-12T10:20:04.275Z,19488
2016-04-12T10:21:04.278Z,20736
2016-04-12T10:22:04.250Z,21120
2016-04-12T10:23:04.237Z,21024
2016-04-12T10:24:04.224Z,20416
2016-04-12T10:25:04.241Z,22560
2016-04-12T10:26:04.198Z,15168
2016-04-12T10:27:04.185Z,17404
2016-04-12T10:28:04.172Z,22592
2016-04-12T10:29:04.159Z,18944
2016-04-12T10:30:04.162Z,21248
2016-04-12T10:31:04.133Z,23296
2016-04-12T10:32:04.182Z,19808
2016-04-12T10:33:04.107Z,19008
2016-04-12T10:34:04.141Z,18432
2016-04-12T10:35:04.190Z,14924
2016-04-12T10:36:05.132Z,18304
2016-04-12T10:37:04.087Z,16932
2016-04-12T10:38:04.137Z,18432
2016-04-12T10:39:04.076Z,20128
2016-04-12T10:40:04.111Z,21152
2016-04-12T10:41:04.003Z,19968
2016-04-12T10:42:03.991Z,18976
2016-04-12T10:43:04.010Z,15316
2016-04-12T10:44:03.997Z,18240
2016-04-12T10:45:03.968Z,18784
2016-04-12T10:46:03.955Z,18720
2016-04-12T10:47:03.942Z,15536
2016-04-12T10:48:03.929Z,13656
2016-04-12T10:49:03.917Z,14380
2016-04-12T10:50:03.903Z,12700
2016-04-12T10:51:03.936Z,12976
2016-04-12T10:52:03.909Z,10856
2016-04-12T10:53:03.724Z,8680
2016-04-12T10:54:03.852Z,7688
2016-04-12T10:55:03.698Z,7436
2016-04-12T10:56:03.857Z,6876
2016-04-12T10:57:03.844Z,5736
2016-04-12T10:58:03.846Z,5896
2016-04-12T10:59:03.818Z,4944
2016-04-12T11:00:03.805Z,5168
2016-04-12T11:01:03.932Z,4896
2016-04-12T11:02:03.810Z,4388
2016-04-12T11:03:03.782Z,4036
2016-04-12T11:04:03.784Z,3864
2016-04-12T11:05:03.724Z,4064
2016-04-12T11:06:03.712Z,4336
2016-04-12T11:07:03.729Z,5128
2016-04-12T11:08:03.686Z,5208
2016-04-12T11:09:03.674Z,4872
2016-04-12T11:10:03.676Z,5140
2016-04-12T11:11:03.631Z,5560
2016-04-12T11:12:03.634Z,4620
2016-04-12T11:13:03.605Z,4060
2016-04-12T11:14:03.609Z,4176
2016-04-12T11:15:03.595Z,4380
2016-04-12T11:16:03.567Z,4740
2016-04-12T11:17:03.553Z,4556
2016-04-12T11:18:03.572Z,4620
2016-04-12T11:19:03.497Z,5904
2016-04-12T11:20:03.530Z,7200
2016-04-12T11:21:03.502Z,7536
2016-04-12T11:22:03.505Z,7440
2016-04-12T11:23:03.492Z,7664
2016-04-12T11:24:03.464Z,7968
2016-04-12T11:25:03.482Z,8856
2016-04-12T11:26:03.453Z,9144
2016-04-12T11:27:03.424Z,37536
2016-04-12T11:28:03.427Z,34880
2016-04-12T11:29:03.414Z,37536
2016-04-12T11:30:03.386Z,20992
2016-04-12T11:31:03.358Z,29760
2016-04-12T11:32:03.359Z,35008
2016-04-12T11:33:03.347Z,35360
2016-04-12T11:34:03.491Z,38592
2016-04-12T11:35:03.337Z,40480
2016-04-12T11:36:03.293Z,42784
2016-04-12T11:37:03.295Z,46176
2016-04-12T11:38:03.313Z,50464
2016-04-12T11:39:03.284Z,53632
2016-04-12T11:40:03.303Z,57792
2016-04-12T11:41:03.650Z,64128
2016-04-12T11:42:03.386Z,69184
2016-04-12T11:43:03.295Z,70912
2016-04-12T11:44:03.252Z,75168
2016-04-12T11:45:03.239Z,78880
2016-04-12T11:46:03.256Z,78464
2016-04-12T11:47:03.244Z,82336
2016-04-12T11:48:03.247Z,84640
2016-04-12T11:49:03.172Z,90496
2016-04-12T11:50:03.236Z,93472
2016-04-12T11:51:04.661Z,90304
2016-04-12T11:52:03.241Z,90176
2016-04-12T11:53:03.213Z,93344
2016-04-12T11:54:03.216Z,97440
2016-04-12T11:55:03.219Z,101536
2016-04-12T11:56:03.221Z,101920
2016-04-12T11:57:03.333Z,103040
2016-04-12T11:58:03.242Z,106368
2016-04-12T11:59:03.245Z,102720
2016-04-12T12:00:03.264Z,100800
2016-04-12T12:01:03.313Z,104480
2016-04-12T12:02:03.222Z,105440
2016-04-12T12:03:03.224Z,104128
2016-04-12T12:04:03.227Z,100192
2016-04-12T12:05:03.230Z,101152
2016-04-12T12:06:03.295Z,106048
2016-04-12T12:07:03.235Z,107328
2016-04-12T12:08:03.269Z,105952
2016-04-12T12:09:03.240Z,104768
2016-04-12T12:10:03.243Z,104992
2016-04-12T12:11:03.230Z,105376
2016-04-12T12:12:03.233Z,106432
2016-04-12T12:13:03.096Z,105216
2016-04-12T12:14:03.239Z,101440
2016-04-12T12:15:03.241Z,106240
2016-04-12T12:16:03.244Z,107136
2016-04-12T12:17:03.262Z,103616
2016-04-12T12:18:03.234Z,106080
2016-04-12T12:19:03.362Z,106112
2016-04-12T12:20:03.255Z,104608
2016-04-12T12:21:03.242Z,102336
2016-04-12T12:22:03.229Z,102784
2016-04-12T12:23:03.091Z,104128
2016-04-12T12:24:03.234Z,105504
2016-04-12T12:25:03.253Z,103776
2016-04-12T12:26:03.255Z,109760
2016-04-12T12:27:03.242Z,109696
2016-04-12T12:28:03.261Z,109568
2016-04-12T12:29:03.263Z,105472
2016-04-12T12:30:03.266Z,105024
2016-04-12T12:31:03.253Z,108064
2016-04-12T12:32:03.287Z,107296
2016-04-12T12:33:03.258Z,106560
2016-04-12T12:34:03.339Z,109952
2016-04-12T12:35:03.263Z,110400
2016-04-12T12:36:03.266Z,106752
2016-04-12T12:37:03.285Z,102976
2016-04-12T12:38:03.257Z,101088
2016-04-12T12:39:03.274Z,104000
2016-04-12T12:40:03.277Z,110112
2016-04-12T12:41:03.279Z,112320
2016-04-12T12:42:03.314Z,109088
2016-04-12T12:43:03.301Z,106272
2016-04-12T12:44:03.273Z,110912
2016-04-12T12:45:03.291Z,11652
2016-04-12T12:46:03.278Z,114816
2016-04-12T12:47:03.483Z,113888
2016-04-12T12:48:03.283Z,101088
2016-04-12T12:49:03.145Z,101600
2016-04-12T12:50:03.303Z,98816
2016-04-12T12:51:03.292Z,104352
2016-04-12T12:52:03.294Z,107616
2016-04-12T12:53:03.280Z,109120
2016-04-12T12:54:03.330Z,110208
2016-04-12T12:55:03.317Z,108000
2016-04-12T12:56:03.305Z,109888
2016-04-12T12:57:03.291Z,111008
2016-04-12T12:58:03.341Z,110240
2016-04-12T12:59:03.344Z,107648
2016-04-12T13:00:03.377Z,105696
2016-04-12T13:01:03.318Z,109632
2016-04-12T13:02:03.321Z,109984
2016-04-12T13:03:03.307Z,108896
2016-04-12T13:04:03.341Z,109312
2016-04-12T13:05:03.344Z,110912
2016-04-12T13:06:03.346Z,109152
2016-04-12T13:07:03.334Z,116384
2016-04-12T13:08:03.352Z,118400
2016-04-12T13:09:03.373Z,127296
2016-04-12T13:10:07.346Z,129312
2016-04-12T13:11:10.863Z,131200
2016-04-12T13:12:09.694Z,116960
2016-04-12T13:13:10.135Z,106464
2016-04-12T13:14:09.824Z,106944
2016-04-12T13:15:03.374Z,104576
2016-04-12T13:16:03.361Z,104032
2016-04-12T13:17:03.427Z,20992
2016-04-12T13:18:03.398Z,112224
2016-04-12T13:19:03.370Z,79680
2016-04-12T13:20:03.357Z,100160
2016-04-12T13:21:03.407Z,100032
2016-04-12T13:22:03.362Z,103776
2016-04-12T13:23:03.364Z,106752
2016-04-12T13:24:03.368Z,92736
2016-04-12T13:25:03.401Z,101088
2016-04-12T13:26:03.373Z,103072
2016-04-12T13:27:03.375Z,104864
2016-04-12T13:28:03.394Z,104832
2016-04-12T13:29:03.224Z,23392
2016-04-12T13:30:03.806Z,103904
2016-04-12T13:31:03.370Z,112640
2016-04-12T13:32:03.420Z,109664
2016-04-12T13:33:03.375Z,103808
2016-04-12T13:34:03.410Z,91904
2016-04-12T13:35:03.396Z,105952
2016-04-12T13:36:03.400Z,106464
2016-04-12T13:37:03.386Z,105088
2016-04-12T13:38:03.421Z,106912
2016-04-12T13:39:03.391Z,107168
2016-04-12T13:40:03.394Z,107360
2016-04-12T13:41:03.413Z,106464
2016-04-12T13:42:03.446Z,105760
2016-04-12T13:43:04.917Z,104160
2016-04-12T13:44:02.639Z,108704
2016-04-12T13:45:03.453Z,105856
2016-04-12T13:46:03.238Z,104256
2016-04-12T13:47:10.360Z,102528
2016-04-12T13:48:03.409Z,106624
2016-04-12T13:49:03.444Z,107264
2016-04-12T13:50:03.415Z,113952
2016-04-12T13:51:03.402Z,114944
2016-04-12T13:52:03.421Z,112384
2016-04-12T13:53:03.407Z,114752
2016-04-12T13:54:03.457Z,115392
2016-04-12T13:55:03.444Z,112704
2016-04-12T13:56:03.446Z,27936
2016-04-12T13:57:03.434Z,107264
2016-04-12T13:58:03.436Z,108992
2016-04-12T13:59:03.423Z,99488
2016-04-12T14:00:03.426Z,110560
2016-04-12T14:01:03.429Z,109824
2016-04-12T14:02:03.415Z,96640
2016-04-12T14:03:03.481Z,16016
2016-04-12T14:04:03.421Z,101248
2016-04-12T14:05:03.409Z,104416
2016-04-12T14:06:03.427Z,107040
2016-04-12T14:07:03.413Z,103328
2016-04-12T14:08:03.416Z,107712
2016-04-12T14:09:03.419Z,110240
2016-04-12T14:10:03.422Z,103744
2016-04-12T14:11:03.440Z,103040
2016-04-12T14:12:03.475Z,106400
2016-04-12T14:13:03.461Z,99008
2016-04-12T14:14:03.417Z,103456
2016-04-12T14:15:03.419Z,103072
2016-04-12T14:16:03.422Z,107904
2016-04-12T14:17:03.424Z,23904
2016-04-12T14:18:03.427Z,104640
2016-04-12T14:19:03.414Z,105216
2016-04-12T14:20:03.416Z,92544
2016-04-12T14:21:03.405Z,110016
2016-04-12T14:22:03.454Z,99392
2016-04-12T14:23:03.472Z,95200
2016-04-12T14:24:03.428Z,100416
2016-04-12T14:25:03.415Z,103456
2016-04-12T14:26:03.418Z,92416
2016-04-12T14:27:03.515Z,94528
2016-04-12T14:28:03.423Z,97792
2016-04-12T14:29:03.411Z,15028
2016-04-12T14:30:03.413Z,108576
2016-04-12T14:31:03.447Z,40512
2016-04-12T14:32:03.404Z,94336
2016-04-12T14:33:03.452Z,17352
2016-04-12T14:34:03.409Z,41504
2016-04-12T14:35:03.411Z,101312
2016-04-12T14:36:03.476Z,101536
2016-04-12T14:37:03.400Z,106880
2016-04-12T14:38:03.387Z,87008
2016-04-12T14:39:03.406Z,111808
2016-04-12T14:40:03.409Z,57696
2016-04-12T14:41:03.412Z,16348
2016-04-12T14:42:03.398Z,23136
2016-04-12T14:43:03.417Z,87840
2016-04-12T14:44:03.403Z,109440
2016-04-12T14:45:03.406Z,103936
2016-04-12T14:46:03.394Z,17536
2016-04-12T14:47:03.380Z,24640
2016-04-12T14:48:03.399Z,113664
2016-04-12T14:49:03.386Z,26688
2016-04-12T14:50:03.388Z,115424
2016-04-12T14:51:03.391Z,12956
2016-04-12T14:52:03.410Z,108384
2016-04-12T14:53:03.397Z,39232
2016-04-12T14:54:03.602Z,26208
2016-04-12T14:55:05.230Z,110560
2016-04-12T14:56:03.373Z,37856
2016-04-12T14:57:03.360Z,101152
2016-04-12T14:58:03.348Z,25536
2016-04-12T14:59:03.366Z,104576
2016-04-12T15:00:03.354Z,99680
2016-04-12T15:01:03.357Z,65952
2016-04-12T15:02:03.359Z,42976
2016-04-12T15:03:03.346Z,101184
2016-04-12T15:04:03.364Z,17952
2016-04-12T15:05:03.367Z,49504
2016-04-12T15:06:03.323Z,94368
2016-04-12T15:07:03.340Z,96896
2016-04-12T15:08:03.328Z,95072
2016-04-12T15:09:03.345Z,96480
2016-04-12T15:10:03.317Z,93408
2016-04-12T15:11:03.336Z,7016
2016-04-12T15:12:03.307Z,96544
2016-04-12T15:13:03.342Z,88896
2016-04-12T15:14:03.328Z,98880
2016-04-12T15:15:03.300Z,90400
2016-04-12T15:16:03.333Z,86592
2016-04-12T15:17:03.289Z,87904
2016-04-12T15:18:03.308Z,84096
2016-04-12T15:19:03.294Z,86496
2016-04-12T15:20:03.282Z,87712
2016-04-12T15:21:03.284Z,88960
2016-04-12T15:22:03.287Z,86208
2016-04-12T15:23:03.352Z,85856
2016-04-12T15:24:03.277Z,57408
2016-04-12T15:25:03.280Z,83392
2016-04-12T15:26:03.266Z,85888
2016-04-12T15:27:03.097Z,76096
2016-04-12T15:28:03.256Z,84000
2016-04-12T15:29:03.259Z,83456
2016-04-12T15:30:03.246Z,83648
2016-04-12T15:31:03.265Z,84160
2016-04-12T15:32:03.252Z,81184
2016-04-12T15:33:03.239Z,56736
2016-04-12T15:34:03.226Z,20512
2016-04-12T15:35:03.276Z,12492
2016-04-12T15:36:03.231Z,11256
2016-04-12T15:37:03.234Z,10804
2016-04-12T15:38:03.268Z,10420
2016-04-12T15:39:03.254Z,7528
2016-04-12T15:40:03.226Z,15356
2016-04-12T15:41:03.244Z,14124
2016-04-12T15:42:03.262Z,9456
2016-04-12T15:43:03.234Z,9268
2016-04-12T15:44:03.206Z,9164
2016-04-12T15:45:03.193Z,9480
2016-04-12T15:46:03.180Z,8692
2016-04-12T15:47:03.198Z,8812
2016-04-12T15:48:03.185Z,8596
2016-04-12T15:49:03.172Z,9100
2016-04-12T15:50:03.175Z,8620
2016-04-12T15:51:03.161Z,11032
2016-04-12T15:52:03.133Z,8048
2016-04-12T15:53:03.135Z,7876
2016-04-12T15:54:03.311Z,8072
2016-04-12T15:55:03.126Z,7772
2016-04-12T15:56:03.129Z,8304
2016-04-12T15:57:03.147Z,7456
2016-04-12T15:58:03.103Z,7324
2016-04-12T15:59:03.152Z,7380
2016-04-12T16:00:03.140Z,7332
2016-04-12T16:01:03.095Z,7348
2016-04-12T16:02:03.051Z,7288
2016-04-12T16:03:03.069Z,7224
2016-04-12T16:04:02.916Z,7200
2016-04-12T16:05:03.591Z,7136
2016-04-12T16:06:03.031Z,7092
2016-04-12T16:07:03.018Z,7080
2016-04-12T16:08:02.989Z,7216
2016-04-12T16:09:05.992Z,7192
2016-04-12T16:10:05.823Z,6968
2016-04-12T16:11:02.997Z,6844
2016-04-12T16:12:02.968Z,6832
2016-04-12T16:13:02.970Z,6696
2016-04-12T16:14:02.942Z,6628
2016-04-12T16:15:03.039Z,6612
2016-04-12T16:16:02.886Z,6560
2016-04-12T16:17:02.936Z,6424
2016-04-12T16:18:02.922Z,6392
2016-04-12T16:19:02.878Z,6364
2016-04-12T16:20:02.974Z,6340
2016-04-12T16:21:02.867Z,6284
2016-04-12T16:22:02.854Z,6248
2016-04-12T16:23:02.857Z,6196
2016-04-12T16:24:02.860Z,6160
2016-04-12T16:25:02.831Z,6160
2016-04-12T16:26:02.803Z,6152
2016-04-12T16:27:02.821Z,6252
2016-04-12T16:28:02.761Z,6604
2016-04-12T16:29:02.764Z,6164
2016-04-12T16:30:02.767Z,6060
2016-04-12T16:31:02.738Z,6076
2016-04-12T16:32:02.726Z,6096
2016-04-12T16:33:02.696Z,6260
2016-04-12T16:34:02.715Z,6632
2016-04-12T16:35:03.124Z,6136
2016-04-12T16:36:02.690Z,6204
2016-04-12T16:37:02.693Z,6256
2016-04-12T16:38:02.648Z,6428
2016-04-12T16:39:02.698Z,4048
2016-04-12T16:40:02.637Z,4380
2016-04-12T16:41:02.765Z,5068
2016-04-12T16:42:02.923Z,6128
2016-04-12T16:43:02.598Z,6732
2016-04-12T16:44:02.726Z,6860
2016-04-12T16:45:02.916Z,6988
2016-04-12T16:46:02.684Z,7284
2016-04-12T16:47:02.578Z,7508
2016-04-12T16:48:02.534Z,7200
2016-04-12T16:49:02.420Z,7076
2016-04-12T16:50:03.072Z,7384
2016-04-12T16:51:02.616Z,10360
2016-04-12T16:52:02.644Z,8056
2016-04-12T16:53:02.702Z,7580
2016-04-12T16:54:02.658Z,7064
2016-04-12T16:55:02.675Z,7688
2016-04-12T16:56:02.662Z,7264
2016-04-12T16:57:02.694Z,9756
2016-04-12T16:58:02.789Z,6516
2016-04-12T16:59:02.673Z,4168
2016-04-12T17:00:02.666Z,5836
2016-04-12T17:01:02.658Z,3580
2016-04-12T17:02:02.666Z,2764
2016-04-12T17:03:02.721Z,2780
2016-04-12T17:04:02.757Z,3112
2016-04-12T17:05:02.855Z,3208
2016-04-12T17:06:02.626Z,3792
2016-04-12T17:07:02.818Z,4572
2016-04-12T17:08:02.729Z,5472
2016-04-12T17:09:02.700Z,6484
2016-04-12T17:10:05.048Z,7476
2016-04-12T17:11:05.395Z,9284
2016-04-12T17:12:04.194Z,8572
2016-04-12T17:13:04.089Z,7356
2016-04-12T17:14:05.264Z,5488
2016-04-12T17:15:04.328Z,5872
2016-04-12T17:16:07.113Z,6360
2016-04-12T17:17:02.474Z,6112
2016-04-12T17:18:02.461Z,6104
2016-04-12T17:19:02.464Z,7476
2016-04-12T17:20:02.545Z,6868
2016-04-12T17:21:02.423Z,5428
2016-04-12T17:22:02.426Z,3504
2016-04-12T17:23:02.397Z,3028
2016-04-12T17:24:02.385Z,2932
2016-04-12T17:25:02.387Z,2908
2016-04-12T17:26:02.374Z,4452
2016-04-12T17:27:02.361Z,2692
2016-04-12T17:28:02.348Z,2440
2016-04-12T17:29:02.335Z,2364
2016-04-12T17:30:02.337Z,2368
2016-04-12T17:31:02.293Z,2568
2016-04-12T17:32:02.296Z,2804
2016-04-12T17:33:02.299Z,3228
2016-04-12T17:34:02.270Z,4404
2016-04-12T17:35:02.132Z,4960
2016-04-12T17:36:02.245Z,4372
2016-04-12T17:37:02.279Z,4264
2016-04-12T17:38:02.203Z,3764
2016-04-12T17:39:02.206Z,2604
2016-04-12T17:40:02.177Z,1916
2016-04-12T17:41:02.180Z,1684
2016-04-12T17:42:02.151Z,1456
2016-04-12T17:43:02.138Z,1336
2016-04-12T17:44:02.141Z,1292
2016-04-12T17:45:02.128Z,1080
2016-04-12T17:46:02.115Z,1084
2016-04-12T17:47:02.102Z,1132
2016-04-12T17:48:02.135Z,1224
2016-04-12T17:49:02.077Z,1396
2016-04-12T17:50:02.048Z,1480
2016-04-12T17:51:02.035Z,1592
2016-04-12T17:52:02.038Z,1724
2016-04-12T17:53:02.040Z,1832
2016-04-12T17:54:02.121Z,2112
2016-04-12T17:55:02.046Z,2808
2016-04-12T17:56:02.001Z,3228
2016-04-12T17:57:02.004Z,3216
2016-04-12T17:58:01.990Z,2048
2016-04-12T17:59:01.946Z,2064
2016-04-12T18:00:01.935Z,1572
2016-04-12T18:01:01.937Z,984
2016-04-12T18:02:01.908Z,832
2016-04-12T18:03:01.879Z,996
2016-04-12T18:04:01.851Z,872
2016-04-12T18:05:01.838Z,1072
2016-04-12T18:06:03.779Z,1500
2016-04-12T18:07:01.828Z,1708
2016-04-12T18:08:01.814Z,1756
2016-04-12T18:09:01.786Z,1868
2016-04-12T18:10:01.773Z,1996
2016-04-12T18:11:01.744Z,2120
2016-04-12T18:12:01.731Z,2168
2016-04-12T18:13:01.734Z,2088
2016-04-12T18:14:01.706Z,1720
2016-04-12T18:15:01.694Z,1452
2016-04-12T18:16:01.696Z,1380
2016-04-12T18:17:01.652Z,1412
2016-04-12T18:18:01.669Z,1356
2016-04-12T18:19:01.638Z,1272
2016-04-12T18:20:01.610Z,1116
2016-04-12T18:21:01.597Z,964
